Time;durP1;ratioP1;P1;durP2;ratioP2;P2;SDS_P1;SDS_P2;PMS_P1;PMS_P2;Temp;Humidity;BMP_temperature;BMP_pressure;BME280_temperature;BME280_humidity;BME280_pressure;Samples;Min_cycle;Max_cycle;Signal;HPM_P1;HPM_P2
2022/07/16 00:03:51;;;;;;;;;;;;;;;11.79;100.00;99505.30;1715037;83;20443;-70
2022/07/16 00:06:35;;;;;;;;;;;;;;;11.76;100.00;99502.59;1690017;83;20133;-70
2022/07/16 00:08:54;;;;;;;;;;;;;;;11.73;100.00;99507.38;1708547;83;20124;-70
2022/07/16 00:11:24;;;;;;;;;;;;;;;11.69;100.00;99500.91;1714898;83;20129;-70
2022/07/16 00:13:56;;;;;;;;;;;;;;;11.65;100.00;99510.93;1690307;83;20424;-70
2022/07/16 00:16:29;;;;;;;;;;;;;;;11.62;100.00;99512.14;1690362;83;20471;-70
2022/07/16 00:21:43;;;;;;;;;;;;;;;11.53;100.00;99514.35;1715705;83;20149;-70
2022/07/16 00:24:12;;;;;;;;;;;;;;;11.49;100.00;99505.13;1716278;83;20140;-70
2022/07/16 00:26:41;;;;;;;;;;;;;;;11.44;100.00;99508.60;1715207;83;20116;-70
2022/07/16 00:29:13;;;;;;;;;;;;;;;11.38;100.00;99510.70;1716575;83;20147;-70
2022/07/16 00:31:44;;;;;;;;;;;;;;;11.35;100.00;99509.16;1716496;83;21213;-70
2022/07/16 00:34:13;;;;;;;;;;;;;;;11.31;100.00;99506.24;1716473;83;20124;-70
2022/07/16 00:36:47;;;;;;;;;;;;;;;11.28;100.00;99506.08;1716434;83;20128;-70
2022/07/16 00:39:17;;;;;;;;;;;;;;;11.25;100.00;99502.84;1716444;83;20147;-70
2022/07/16 00:41:49;;;;;;;;;;;;;;;11.24;100.00;99508.09;1716749;83;20112;-70
2022/07/16 00:44:23;;;;;;;;;;;;;;;11.22;100.00;99502.67;1716516;83;21138;-71
2022/07/16 00:46:50;;;;;;;;;;;;;;;11.17;100.00;99501.45;1716544;83;20136;-71
2022/07/16 00:49:19;;;;;;;;;;;;;;;11.11;100.00;99507.66;1716441;83;20148;-71
2022/07/16 00:51:49;;;;;;;;;;;;;;;11.07;100.00;99506.67;1716383;83;20153;-70
2022/07/16 00:54:21;;;;;;;;;;;;;;;11.03;100.00;99507.08;1716149;83;20141;-70
2022/07/16 00:56:49;;;;;;;;;;;;;;;11.01;100.00;99505.77;1716592;83;21277;-70
2022/07/16 01:01:53;;;;;;;;;;;;;;;10.96;100.00;99508.70;1687888;83;20143;-70
2022/07/16 01:04:21;;;;;;;;;;;;;;;10.93;100.00;99512.89;1687176;83;20462;-70
2022/07/16 01:06:48;;;;;;;;;;;;;;;10.90;100.00;99507.47;1716718;83;20140;-70
2022/07/16 01:09:19;;;;;;;;;;;;;;;10.87;100.00;99507.30;1689106;83;21169;-70
2022/07/16 01:11:51;;;;;;;;;;;;;;;10.84;100.00;99507.94;1716368;83;20247;-70
2022/07/16 01:14:18;;;;;;;;;;;;;;;10.81;100.00;99503.89;1715645;83;20124;-70
2022/07/16 01:16:51;;;;;;;;;;;;;;;10.79;100.00;99509.45;1716584;83;20128;-70
2022/07/16 01:19:23;;;;;;;;;;;;;;;10.75;100.00;99507.91;1716042;83;20155;-70
2022/07/16 01:21:52;;;;;;;;;;;;;;;10.72;100.00;99511.84;1720684;83;21089;-70
2022/07/16 01:24:19;;;;;;;;;;;;;;;10.70;100.00;99512.72;1723870;83;20128;-70
2022/07/16 01:26:53;;;;;;;;;;;;;;;10.67;100.00;99509.24;1725078;83;33280;-70
2022/07/16 01:29:24;;;;;;;;;;;;;;;10.64;100.00;99515.36;1723971;83;20152;-69
2022/07/16 01:31:51;;;;;;;;;;;;;;;10.61;100.00;99510.51;1724019;83;20133;-69
2022/07/16 01:34:27;;;;;;;;;;;;;;;10.55;100.00;99513.39;1724896;83;21709;-69
2022/07/16 01:37:05;;;;;;;;;;;;;;;10.52;100.00;99516.77;1724424;83;20128;-69
2022/07/16 01:39:34;;;;;;;;;;;;;;;10.49;100.00;99511.09;1692624;83;20140;-69
2022/07/16 01:42:16;;;;;;;;;;;;;;;10.46;100.00;99520.77;1725052;83;21388;-69
2022/07/16 01:44:36;;;;;;;;;;;;;;;10.44;100.00;99518.91;1695166;83;20108;-69
2022/07/16 01:47:10;;;;;;;;;;;;;;;10.41;100.00;99514.61;1724032;83;21184;-69
2022/07/16 01:49:40;;;;;;;;;;;;;;;10.38;100.00;99518.83;1724019;83;20160;-69
2022/07/16 01:52:12;;;;;;;;;;;;;;;10.37;100.00;99521.87;1699247;83;20104;-69
2022/07/16 01:54:44;;;;;;;;;;;;;;;10.34;100.00;99530.18;1724080;83;20186;-69
2022/07/16 01:57:15;;;;;;;;;;;;;;;10.32;100.00;99520.64;1724644;83;20184;-69
2022/07/16 01:59:44;;;;;;;;;;;;;;;10.29;100.00;99517.16;1699931;83;20136;-70
2022/07/16 02:02:14;;;;;;;;;;;;;;;10.26;100.00;99518.59;1724613;83;20179;-71
2022/07/16 02:04:41;;;;;;;;;;;;;;;10.24;100.00;99519.47;1724753;83;20116;-71
2022/07/16 02:07:13;;;;;;;;;;;;;;;10.19;100.00;99525.89;1724434;83;20167;-71
2022/07/16 02:09:42;;;;;;;;;;;;;;;10.17;100.00;99524.56;1700155;83;20144;-71
2022/07/16 02:12:15;;;;;;;;;;;;;;;10.14;100.00;99525.99;1724551;83;21991;-71
2022/07/16 02:14:47;;;;;;;;;;;;;;;10.12;100.00;99528.80;1725032;83;20422;-71
2022/07/16 02:17:25;;;;;;;;;;;;;;;10.09;100.00;99530.80;1724662;83;20494;-71
2022/07/16 02:19:59;;;;;;;;;;;;;;;10.09;100.00;99530.23;1722662;83;20100;-71
2022/07/16 02:22:28;;;;;;;;;;;;;;;10.07;100.00;99522.07;1718773;83;20483;-71
2022/07/16 02:24:58;;;;;;;;;;;;;;;10.06;100.00;99521.82;1688427;83;20144;-71
2022/07/16 02:27:29;;;;;;;;;;;;;;;10.06;100.00;99523.19;1686994;83;20227;-71
2022/07/16 02:29:59;;;;;;;;;;;;;;;10.06;100.00;99526.74;1716594;83;20125;-71
2022/07/16 02:32:35;;;;;;;;;;;;;;;10.08;100.00;99525.06;1688253;83;20117;-71
2022/07/16 02:35:02;;;;;;;;;;;;;;;10.09;100.00;99521.20;1715942;83;20492;-71
2022/07/16 02:37:37;;;;;;;;;;;;;;;10.09;100.00;99524.75;1716499;83;22583;-71
2022/07/16 02:40:02;;;;;;;;;;;;;;;10.11;100.00;99517.58;1714305;83;20126;-71
2022/07/16 02:42:31;;;;;;;;;;;;;;;10.13;100.00;99523.56;1716410;83;20527;-70
2022/07/16 02:44:58;;;;;;;;;;;;;;;10.15;100.00;99519.95;1716313;83;20205;-70
2022/07/16 02:47:25;;;;;;;;;;;;;;;10.17;100.00;99519.07;1716372;83;20148;-71
2022/07/16 02:49:55;;;;;;;;;;;;;;;10.17;100.00;99519.88;1715535;83;21237;-71
2022/07/16 02:52:27;;;;;;;;;;;;;;;10.19;100.00;99523.69;1716512;83;20100;-71
2022/07/16 02:55:00;;;;;;;;;;;;;;;10.24;100.00;99522.21;1715879;83;20153;-70
2022/07/16 02:57:29;;;;;;;;;;;;;;;10.31;100.00;99524.51;1716399;83;20112;-71
2022/07/16 02:59:55;;;;;;;;;;;;;;;10.37;100.00;99531.48;1716386;83;20120;-70
2022/07/16 03:02:26;;;;;;;;;;;;;;;10.41;100.00;99535.19;1688644;83;20149;-70
2022/07/16 03:04:55;;;;;;;;;;;;;;;10.46;100.00;99529.00;1716407;83;20112;-71
2022/07/16 03:07:26;;;;;;;;;;;;;;;10.52;100.00;99531.86;1693193;82;20430;-71
2022/07/16 03:09:59;;;;;;;;;;;;;;;10.62;100.00;99532.72;1716192;83;20110;-71
2022/07/16 03:12:30;;;;;;;;;;;;;;;10.70;100.00;99537.44;1715086;83;20119;-71
2022/07/16 03:14:57;;;;;;;;;;;;;;;10.77;100.00;99542.72;1717602;83;20671;-70
2022/07/16 03:17:27;;;;;;;;;;;;;;;10.85;100.00;99541.13;1705442;83;20118;-68
2022/07/16 03:19:53;;;;;;;;;;;;;;;10.94;100.00;99541.16;1703208;83;20143;-68
2022/07/16 03:22:27;;;;;;;;;;;;;;;11.00;100.00;99542.05;1698854;83;20190;-70
2022/07/16 03:24:53;;;;;;;;;;;;;;;11.07;100.00;99542.39;1725467;82;20468;-70
2022/07/16 03:27:19;;;;;;;;;;;;;;;11.17;100.00;99548.97;1728291;82;21128;-70
2022/07/16 03:29:49;;;;;;;;;;;;;;;11.28;100.00;99544.55;1711497;82;20174;-70
2022/07/16 03:32:23;;;;;;;;;;;;;;;11.37;100.00;99553.63;1705071;82;20148;-70
2022/07/16 03:34:50;;;;;;;;;;;;;;;11.58;100.00;99555.41;1730964;82;20126;-70
2022/07/16 03:37:17;;;;;;;;;;;;;;;11.85;100.00;99558.45;1744205;81;20150;-69
2022/07/16 03:39:51;;;;;;;;;;;;;;;12.07;100.00;99556.09;1706359;84;21145;-69
2022/07/16 03:42:15;;;;;;;;;;;;;;;12.31;100.00;99558.30;1706251;83;20092;-69
2022/07/16 03:44:45;;;;;;;;;;;;;;;12.55;100.00;99558.57;1741301;82;20124;-69
2022/07/16 03:47:15;;;;;;;;;;;;;;;12.72;100.00;99559.05;1743097;82;20125;-69
2022/07/16 03:49:49;;;;;;;;;;;;;;;12.87;100.00;99557.70;1713641;83;20124;-69
2022/07/16 03:52:15;;;;;;;;;;;;;;;13.01;100.00;99547.27;1713479;83;21175;-69
2022/07/16 03:54:44;;;;;;;;;;;;;;;13.17;100.00;99553.06;1706121;83;20160;-70
2022/07/16 03:57:12;;;;;;;;;;;;;;;13.30;100.00;99546.47;1742321;82;20431;-70
2022/07/16 03:59:39;;;;;;;;;;;;;;;13.41;100.00;99547.70;1741269;82;20163;-71
2022/07/16 04:02:05;;;;;;;;;;;;;;;13.52;100.00;99550.30;1743869;82;20153;-70
2022/07/16 04:04:35;;;;;;;;;;;;;;;13.62;100.00;99554.62;1689513;83;20585;-69
2022/07/16 04:07:07;;;;;;;;;;;;;;;13.71;100.00;99545.70;1743700;81;20190;-70
2022/07/16 04:09:33;;;;;;;;;;;;;;;13.80;100.00;99540.12;1712027;83;20500;-69
2022/07/16 04:12:04;;;;;;;;;;;;;;;13.95;100.00;99546.95;1725173;82;20091;-69
2022/07/16 04:14:35;;;;;;;;;;;;;;;14.07;100.00;99546.44;1725245;82;20087;-69
2022/07/16 04:17:10;;;;;;;;;;;;;;;14.23;100.00;99550.75;1706553;84;21103;-70
2022/07/16 04:19:40;;;;;;;;;;;;;;;14.37;100.00;99540.22;1706212;83;20468;-71
2022/07/16 04:22:08;;;;;;;;;;;;;;;14.49;100.00;99540.25;1703683;83;20142;-70
2022/07/16 04:24:39;;;;;;;;;;;;;;;14.56;100.00;99543.03;1706100;84;20631;-70
2022/07/16 04:27:05;;;;;;;;;;;;;;;14.61;100.00;99546.95;1716220;83;20127;-71
2022/07/16 04:29:36;;;;;;;;;;;;;;;14.64;100.00;99545.70;1716370;83;21947;-70
2022/07/16 04:32:05;;;;;;;;;;;;;;;14.68;100.00;99552.15;1717630;83;20096;-70
2022/07/16 04:34:45;;;;;;;;;;;;;;;14.75;100.00;99551.59;1699334;83;20120;-70
2022/07/16 04:37:09;;;;;;;;;;;;;;;14.81;100.00;99550.22;1717005;83;20497;-70
2022/07/16 04:39:43;;;;;;;;;;;;;;;14.93;100.00;99548.84;1699597;83;20422;-70
2022/07/16 04:42:15;;;;;;;;;;;;;;;15.04;100.00;99546.41;1717567;83;21531;-70
2022/07/16 04:44:41;;;;;;;;;;;;;;;15.16;100.00;99547.22;1714055;83;20115;-70
2022/07/16 04:47:12;;;;;;;;;;;;;;;15.29;100.00;99552.16;1717446;83;20290;-71
2022/07/16 04:49:38;;;;;;;;;;;;;;;15.42;100.00;99547.43;1717246;83;20458;-70
2022/07/16 04:52:05;;;;;;;;;;;;;;;15.53;100.00;99545.22;1717224;83;20472;-71
2022/07/16 04:54:37;;;;;;;;;;;;;;;15.66;100.00;99546.01;1717237;83;21635;-71
2022/07/16 04:57:12;;;;;;;;;;;;;;;15.78;100.00;99552.09;1717770;83;20156;-71
2022/07/16 04:59:41;;;;;;;;;;;;;;;15.91;100.00;99544.56;1714030;83;20096;-72
2022/07/16 05:04:54;;;;;;;;;;;;;;;16.11;100.00;99547.72;1713060;83;20075;-71
2022/07/16 05:07:22;;;;;;;;;;;;;;;16.22;100.00;99552.95;1717876;83;20298;-71
2022/07/16 05:09:54;;;;;;;;;;;;;;;16.32;100.00;99558.56;1717909;83;20471;-71
2022/07/16 05:12:22;;;;;;;;;;;;;;;16.40;100.00;99557.61;1717632;83;20138;-70
2022/07/16 05:14:51;;;;;;;;;;;;;;;16.47;99.87;99564.72;1717417;83;20261;-72
2022/07/16 05:17:23;;;;;;;;;;;;;;;16.55;100.00;99561.56;1714746;83;20455;-71
2022/07/16 05:19:54;;;;;;;;;;;;;;;16.65;99.41;99563.85;1717864;83;21277;-71
2022/07/16 05:22:24;;;;;;;;;;;;;;;16.76;98.47;99568.48;1716666;82;20411;-71
2022/07/16 05:24:52;;;;;;;;;;;;;;;16.84;96.54;99563.35;1716368;83;20143;-71
2022/07/16 05:27:20;;;;;;;;;;;;;;;16.89;95.64;99564.25;1717434;83;20131;-71
2022/07/16 05:29:51;;;;;;;;;;;;;;;16.92;94.23;99574.63;1717019;83;20087;-71
2022/07/16 05:32:22;;;;;;;;;;;;;;;16.96;96.41;99573.55;1717290;83;21777;-71
2022/07/16 05:37:28;;;;;;;;;;;;;;;17.28;99.00;99575.73;1651046;84;20421;-71
2022/07/16 05:39:57;;;;;;;;;;;;;;;17.45;97.63;99571.75;1683637;85;21162;-71
2022/07/16 05:42:25;;;;;;;;;;;;;;;17.58;93.69;99566.89;1686915;85;20094;-71
2022/07/16 05:44:54;;;;;;;;;;;;;;;17.67;93.35;99561.39;1691738;83;21132;-70
2022/07/16 05:47:20;;;;;;;;;;;;;;;17.77;92.57;99560.83;1708786;83;20125;-70
2022/07/16 05:49:48;;;;;;;;;;;;;;;17.89;90.72;99563.25;1711369;83;20148;-72
2022/07/16 05:52:21;;;;;;;;;;;;;;;17.96;87.09;99557.81;1716166;83;20112;-72
2022/07/16 05:54:56;;;;;;;;;;;;;;;18.02;87.17;99557.16;1717489;83;20464;-72
2022/07/16 05:57:35;;;;;;;;;;;;;;;18.13;87.45;99556.00;1717733;83;21078;-70
2022/07/16 06:00:02;;;;;;;;;;;;;;;18.24;86.99;99548.69;1697801;83;20118;-71
2022/07/16 06:02:35;;;;;;;;;;;;;;;18.32;85.89;99552.41;1714590;83;20076;-71
2022/07/16 06:05:04;;;;;;;;;;;;;;;18.38;85.37;99547.58;1689405;83;20108;-69
2022/07/16 06:07:38;;;;;;;;;;;;;;;18.39;83.47;99545.02;1717124;83;20439;-70
2022/07/16 06:10:06;;;;;;;;;;;;;;;18.41;82.80;99548.81;1716214;83;21177;-71
2022/07/16 06:12:33;;;;;;;;;;;;;;;18.44;82.14;99550.86;1715267;83;21161;-75
2022/07/16 06:15:03;;;;;;;;;;;;;;;18.49;81.17;99551.33;1716837;83;20147;-75
2022/07/16 06:17:31;;;;;;;;;;;;;;;18.56;80.47;99556.23;1715892;83;20171;-75
2022/07/16 06:19:59;;;;;;;;;;;;;;;18.63;79.37;99551.41;1717177;83;20155;-76
2022/07/16 06:22:33;;;;;;;;;;;;;;;18.72;79.85;99549.20;1716381;83;21247;-81
2022/07/16 06:25:15;;;;;;;;;;;;;;;18.85;79.27;99554.80;1714677;83;20201;-76
2022/07/16 06:27:44;;;;;;;;;;;;;;;18.98;76.96;99554.02;1716367;83;20159;-75
2022/07/16 06:32:46;;;;;;;;;;;;;;;19.16;75.70;99559.86;1714894;83;20144;-76
2022/07/16 06:35:20;;;;;;;;;;;;;;;19.29;75.54;99557.09;1716380;83;21964;-76
2022/07/16 06:37:44;;;;;;;;;;;;;;;19.38;71.76;99557.05;1745491;82;20146;-76
2022/07/16 06:40:12;;;;;;;;;;;;;;;19.38;70.97;99556.23;1715802;83;20499;-74
2022/07/16 06:42:39;;;;;;;;;;;;;;;19.41;72.68;99554.91;1719399;83;20143;-75
2022/07/16 06:45:09;;;;;;;;;;;;;;;19.51;72.06;99555.44;1745461;81;20171;-75
2022/07/16 06:47:36;;;;;;;;;;;;;;;19.63;70.75;99556.05;1706407;82;21186;-75
2022/07/16 06:50:03;;;;;;;;;;;;;;;19.71;69.97;99561.91;1680258;85;20100;-75
2022/07/16 06:52:30;;;;;;;;;;;;;;;19.81;69.83;99561.05;1680098;85;20466;-74
2022/07/16 06:54:57;;;;;;;;;;;;;;;19.91;71.52;99557.02;1679526;85;20100;-75
2022/07/16 06:57:26;;;;;;;;;;;;;;;20.09;71.16;99556.66;1678977;85;20187;-72
2022/07/16 06:59:52;;;;;;;;;;;;;;;20.27;69.38;99556.04;1696419;83;21167;-70
2022/07/16 07:02:19;;;;;;;;;;;;;;;20.40;68.22;99558.22;1714223;82;20181;-73
2022/07/16 07:04:48;;;;;;;;;;;;;;;20.54;68.94;99555.38;1714788;83;20223;-72
2022/07/16 07:07:18;;;;;;;;;;;;;;;20.63;67.40;99551.10;1716885;82;20159;-73
2022/07/16 07:09:45;;;;;;;;;;;;;;;20.66;66.16;99550.34;1716812;83;20214;-73
2022/07/16 07:12:12;;;;;;;;;;;;;;;20.69;64.97;99550.16;1717395;83;21524;-72
2022/07/16 07:14:39;;;;;;;;;;;;;;;20.69;65.26;99552.36;1717562;83;20095;-71
2022/07/16 07:17:05;;;;;;;;;;;;;;;20.74;65.39;99551.21;1717581;82;20135;-72
2022/07/16 07:19:35;;;;;;;;;;;;;;;20.79;63.89;99548.07;1717880;83;20115;-69
2022/07/16 07:22:11;;;;;;;;;;;;;;;20.91;63.08;99545.56;1717339;83;20442;-76
2022/07/16 07:24:38;;;;;;;;;;;;;;;21.00;64.38;99545.45;1717756;82;21787;-75
2022/07/16 07:27:05;;;;;;;;;;;;;;;21.09;60.10;99543.73;1717601;82;20151;-75
2022/07/16 07:29:32;;;;;;;;;;;;;;;21.10;60.86;99545.33;1717742;83;20487;-70
2022/07/16 07:31:58;;;;;;;;;;;;;;;21.17;60.96;99537.61;1717932;83;20072;-74
2022/07/16 07:34:26;;;;;;;;;;;;;;;21.28;59.01;99541.31;1717909;83;20163;-68
2022/07/16 07:36:55;;;;;;;;;;;;;;;21.37;61.50;99542.55;1697758;83;20127;-68
2022/07/16 07:39:23;;;;;;;;;;;;;;;21.56;59.79;99541.48;1719692;83;20095;-68
2022/07/16 07:41:54;;;;;;;;;;;;;;;21.73;56.79;99544.19;1721348;83;20163;-71
2022/07/16 07:44:23;;;;;;;;;;;;;;;21.85;56.30;99548.64;1716143;83;20179;-69
2022/07/16 07:46:54;;;;;;;;;;;;;;;21.97;55.98;99537.09;1711151;83;20440;-69
2022/07/16 07:49:23;;;;;;;;;;;;;;;21.93;55.17;99535.70;1714464;83;20937;-69
2022/07/16 07:51:50;;;;;;;;;;;;;;;21.94;56.02;99536.52;1713105;83;20173;-68
2022/07/16 07:54:19;;;;;;;;;;;;;;;21.98;55.87;99534.50;1713619;83;20123;-69
2022/07/16 07:56:53;;;;;;;;;;;;;;;21.95;57.01;99539.51;1715408;83;20099;-71
2022/07/16 07:59:20;;;;;;;;;;;;;;;21.84;56.40;99538.06;1716227;83;20207;-68
2022/07/16 08:01:46;;;;;;;;;;;;;;;21.67;57.62;99536.77;1717533;83;21822;-67
2022/07/16 08:04:22;;;;;;;;;;;;;;;21.64;57.75;99530.56;1697277;83;20114;-69
2022/07/16 08:06:51;;;;;;;;;;;;;;;21.71;58.42;99529.80;1716053;82;20155;-68
2022/07/16 08:09:19;;;;;;;;;;;;;;;22.00;57.83;99530.13;1697898;83;20438;-70
2022/07/16 08:11:51;;;;;;;;;;;;;;;22.25;56.65;99526.06;1717240;83;20469;-68
2022/07/16 08:14:15;;;;;;;;;;;;;;;22.42;56.76;99525.91;1716657;83;21155;-70
2022/07/16 08:16:42;;;;;;;;;;;;;;;22.48;53.33;99530.52;1717167;83;20144;-69
2022/07/16 08:21:51;;;;;;;;;;;;;;;22.32;53.64;99528.87;1691551;83;20499;-68
2022/07/16 08:27:04;;;;;;;;;;;;;;;22.99;49.62;99519.00;1721264;83;21161;-69
2022/07/16 08:29:37;;;;;;;;;;;;;;;23.54;49.25;99513.75;1721036;83;20146;-70
2022/07/16 08:32:03;;;;;;;;;;;;;;;23.95;46.65;99516.80;1711184;83;20468;-68
2022/07/16 08:34:33;;;;;;;;;;;;;;;24.29;46.46;99514.25;1712880;83;20126;-72
2022/07/16 08:37:00;;;;;;;;;;;;;;;24.66;46.47;99513.63;1709877;83;20131;-76
2022/07/16 08:39:29;;;;;;;;;;;;;;;25.09;43.88;99511.10;1709110;83;21759;-71
2022/07/16 08:41:56;;;;;;;;;;;;;;;25.30;43.97;99506.70;1721759;83;20426;-71
2022/07/16 08:44:22;;;;;;;;;;;;;;;25.57;42.93;99507.59;1706383;83;20089;-71
2022/07/16 08:46:52;;;;;;;;;;;;;;;25.81;43.01;99508.56;1714394;83;20426;-69
2022/07/16 08:49:20;;;;;;;;;;;;;;;25.75;41.58;99505.23;1721637;83;20465;-69
2022/07/16 08:51:50;;;;;;;;;;;;;;;25.73;43.43;99513.28;1721668;83;21149;-69
2022/07/16 08:54:22;;;;;;;;;;;;;;;25.75;42.90;99508.04;1704959;83;20087;-73
2022/07/16 08:56:50;;;;;;;;;;;;;;;25.55;41.12;99498.78;1718200;83;20145;-67
2022/07/16 08:59:23;;;;;;;;;;;;;;;25.23;42.21;99499.73;1706456;82;20136;-73
2022/07/16 09:01:52;;;;;;;;;;;;;;;25.19;43.16;99498.97;1707998;83;20198;-74
2022/07/16 09:04:17;;;;;;;;;;;;;;;25.38;42.16;99496.98;1705451;83;22033;-74
2022/07/16 09:06:51;;;;;;;;;;;;;;;25.70;41.92;99502.27;1750389;82;20662;-69
2022/07/16 09:09:19;;;;;;;;;;;;;;;26.03;42.69;99501.25;1752091;82;20261;-69
2022/07/16 09:11:46;;;;;;;;;;;;;;;26.03;40.00;99504.86;1753193;81;20102;-68
2022/07/16 09:14:24;;;;;;;;;;;;;;;25.71;40.37;99499.64;1753582;81;20196;-68
2022/07/16 09:16:55;;;;;;;;;;;;;;;25.60;41.87;99498.94;1753632;81;20138;-68
2022/07/16 09:19:28;;;;;;;;;;;;;;;25.87;41.01;99497.66;1727981;82;20167;-68
2022/07/16 09:22:10;;;;;;;;;;;;;;;26.02;39.96;99494.83;1752679;81;20122;-72
2022/07/16 09:24:47;;;;;;;;;;;;;;;26.22;40.28;99494.36;1738073;82;20191;-72
2022/07/16 09:27:17;;;;;;;;;;;;;;;26.35;38.10;99486.79;1733122;83;20129;-74
2022/07/16 09:29:58;;;;;;;;;;;;;;;26.49;40.98;99483.77;1733032;83;20802;-72
2022/07/16 09:32:34;;;;;;;;;;;;;;;26.71;40.08;99480.79;1732293;82;20166;-69
2022/07/16 09:35:13;;;;;;;;;;;;;;;26.94;36.81;99474.38;1732957;83;20182;-77
2022/07/16 09:37:46;;;;;;;;;;;;;;;27.09;36.19;99474.36;1733192;82;20137;-76
2022/07/16 09:40:13;;;;;;;;;;;;;;;27.32;35.67;99473.52;1733612;83;20122;-75
2022/07/16 09:42:39;;;;;;;;;;;;;;;27.37;35.58;99476.45;1733790;83;21085;-75
2022/07/16 09:45:07;;;;;;;;;;;;;;;27.13;35.82;99470.86;1733420;82;20430;-75
2022/07/16 09:47:36;;;;;;;;;;;;;;;26.62;36.12;99477.72;1733531;82;20453;-76
2022/07/16 09:50:03;;;;;;;;;;;;;;;25.92;37.56;99487.35;1733329;82;20126;-76
2022/07/16 09:52:32;;;;;;;;;;;;;;;25.52;38.50;99486.97;1733542;83;20130;-74
2022/07/16 09:54:59;;;;;;;;;;;;;;;25.52;40.08;99485.56;1733247;82;21208;-75
2022/07/16 09:57:27;;;;;;;;;;;;;;;25.88;40.43;99478.16;1732670;82;20087;-73
2022/07/16 09:59:54;;;;;;;;;;;;;;;26.07;39.31;99480.30;1733897;83;20120;-69
2022/07/16 10:02:20;;;;;;;;;;;;;;;25.93;38.98;99481.91;1733549;83;20362;-69
2022/07/16 10:04:46;;;;;;;;;;;;;;;25.83;39.54;99477.22;1733797;83;20422;-69
2022/07/16 10:07:13;;;;;;;;;;;;;;;25.84;38.83;99478.81;1733305;83;21147;-66
2022/07/16 10:09:40;;;;;;;;;;;;;;;25.77;39.06;99476.09;1733446;82;20496;-72
2022/07/16 10:12:15;;;;;;;;;;;;;;;25.95;40.79;99478.08;1723619;82;20087;-73
2022/07/16 10:14:43;;;;;;;;;;;;;;;26.02;39.29;99468.11;1703623;84;20089;-76
2022/07/16 10:17:21;;;;;;;;;;;;;;;26.14;37.97;99473.78;1703950;84;20113;-75
2022/07/16 10:20:00;;;;;;;;;;;;;;;26.30;37.19;99461.30;1703786;84;21115;-74
2022/07/16 10:22:31;;;;;;;;;;;;;;;26.63;36.58;99461.01;1703637;84;20148;-68
2022/07/16 10:24:58;;;;;;;;;;;;;;;26.68;34.41;99461.93;1718248;83;20132;-69
2022/07/16 10:27:32;;;;;;;;;;;;;;;26.39;34.63;99457.98;1724009;83;20128;-68
2022/07/16 10:30:23;;;;;;;;;;;;;;;26.07;35.50;99459.81;1724118;83;20084;-68
2022/07/16 10:33:03;;;;;;;;;;;;;;;25.73;36.48;99463.48;1724212;83;21123;-68
2022/07/16 10:35:30;;;;;;;;;;;;;;;25.64;37.75;99459.77;1724361;83;20097;-68
2022/07/16 10:38:08;;;;;;;;;;;;;;;25.62;35.79;99452.94;1724374;83;20146;-67
2022/07/16 10:40:37;;;;;;;;;;;;;;;25.44;33.89;99452.34;1720267;83;20408;-67
2022/07/16 10:43:11;;;;;;;;;;;;;;;25.40;35.68;99455.22;1724410;83;20145;-71
2022/07/16 10:45:58;;;;;;;;;;;;;;;25.52;36.32;99449.03;1724631;83;20681;-71
2022/07/16 10:48:40;;;;;;;;;;;;;;;25.68;34.71;99453.30;1723877;83;20141;-76
2022/07/16 10:51:15;;;;;;;;;;;;;;;25.89;34.22;99448.83;1723942;83;20100;-76
2022/07/16 10:54:03;;;;;;;;;;;;;;;26.14;34.73;99449.87;1723825;83;20539;-75
2022/07/16 10:56:38;;;;;;;;;;;;;;;26.49;34.26;99434.52;1723189;83;20132;-74
2022/07/16 10:59:07;;;;;;;;;;;;;;;26.91;33.08;99436.61;1723930;83;21140;-75
2022/07/16 11:01:41;;;;;;;;;;;;;;;27.21;31.78;99422.19;1724229;83;20271;-77
2022/07/16 11:04:08;;;;;;;;;;;;;;;27.40;32.49;99432.70;1724330;83;20160;-72
2022/07/16 11:06:40;;;;;;;;;;;;;;;27.68;32.65;99430.58;1724131;83;20077;-71
2022/07/16 11:09:07;;;;;;;;;;;;;;;27.97;32.92;99418.84;1724371;83;20089;-71
2022/07/16 11:11:36;;;;;;;;;;;;;;;28.25;31.65;99425.91;1724194;83;21127;-71
2022/07/16 11:14:06;;;;;;;;;;;;;;;28.39;29.25;99425.55;1724075;83;20466;-72
2022/07/16 11:16:34;;;;;;;;;;;;;;;28.32;30.51;99417.86;1723814;83;20121;-73
2022/07/16 11:19:04;;;;;;;;;;;;;;;28.38;31.80;99417.52;1723327;83;20197;-74
2022/07/16 11:21:31;;;;;;;;;;;;;;;28.69;32.23;99416.56;1724203;83;20200;-76
2022/07/16 11:23:59;;;;;;;;;;;;;;;28.85;31.15;99415.97;1722572;83;21134;-76
2022/07/16 11:26:29;;;;;;;;;;;;;;;28.96;31.96;99416.28;1714121;83;20132;-76
2022/07/16 11:29:00;;;;;;;;;;;;;;;28.77;31.35;99417.36;1714146;83;20129;-77
2022/07/16 11:31:31;;;;;;;;;;;;;;;28.39;31.96;99416.28;1714476;83;20127;-72
2022/07/16 11:34:08;;;;;;;;;;;;;;;28.06;32.81;99419.05;1714294;83;20449;-73
2022/07/16 11:36:36;;;;;;;;;;;;;;;27.70;33.45;99421.86;1714343;83;21796;-72
2022/07/16 11:39:11;;;;;;;;;;;;;;;27.27;33.79;99420.47;1714142;83;20073;-73
2022/07/16 11:41:39;;;;;;;;;;;;;;;26.81;34.19;99417.07;1714508;83;20149;-74
2022/07/16 11:44:19;;;;;;;;;;;;;;;26.51;34.77;99418.00;1714161;83;20145;-75
2022/07/16 11:46:54;;;;;;;;;;;;;;;26.19;35.37;99430.50;1714371;83;20126;-72
2022/07/16 11:49:23;;;;;;;;;;;;;;;25.80;34.44;99424.64;1714316;83;21153;-69
2022/07/16 11:51:51;;;;;;;;;;;;;;;25.72;36.83;99439.39;1689755;83;20522;-70
2022/07/16 11:54:19;;;;;;;;;;;;;;;25.99;38.00;99429.61;1731078;82;20147;-74
2022/07/16 11:56:45;;;;;;;;;;;;;;;26.52;37.44;99425.22;1714332;82;20515;-72
2022/07/16 11:59:21;;;;;;;;;;;;;;;26.91;36.75;99425.34;1714259;83;20160;-73
2022/07/16 12:01:57;;;;;;;;;;;;;;;27.15;37.10;99423.30;1712631;83;21102;-75
2022/07/16 12:04:39;;;;;;;;;;;;;;;27.21;35.64;99427.22;1712262;83;20121;-71
2022/07/16 12:07:17;;;;;;;;;;;;;;;27.34;35.25;99422.36;1713990;83;20122;-71
2022/07/16 12:09:45;;;;;;;;;;;;;;;27.32;33.44;99417.77;1714539;83;20476;-81
2022/07/16 12:12:17;;;;;;;;;;;;;;;27.00;33.33;99414.16;1714178;83;20077;-80
2022/07/16 12:14:47;;;;;;;;;;;;;;;26.55;34.09;99415.92;1713829;83;21149;-80
2022/07/16 12:17:25;;;;;;;;;;;;;;;26.34;35.20;99413.44;1713594;83;20122;-79
2022/07/16 12:20:06;;;;;;;;;;;;;;;26.55;35.99;99413.91;1712860;83;20120;-78
2022/07/16 12:22:51;;;;;;;;;;;;;;;27.03;36.06;99408.47;1726693;82;21073;-70
2022/07/16 12:25:20;;;;;;;;;;;;;;;27.63;34.57;99407.11;1749226;81;20154;-70
2022/07/16 12:27:48;;;;;;;;;;;;;;;28.08;33.19;99405.30;1754058;82;21116;-70
2022/07/16 12:30:14;;;;;;;;;;;;;;;28.21;32.04;99407.64;1745654;82;20197;-71
2022/07/16 12:32:52;;;;;;;;;;;;;;;27.82;31.82;99406.27;1749060;82;20182;-71
2022/07/16 12:35:38;;;;;;;;;;;;;;;27.20;32.67;99405.90;1741946;82;20380;-71
2022/07/16 12:38:05;;;;;;;;;;;;;;;26.57;34.09;99405.80;1753463;81;20488;-71
2022/07/16 12:40:33;;;;;;;;;;;;;;;26.22;34.99;99405.73;1753200;82;21118;-79
2022/07/16 12:43:02;;;;;;;;;;;;;;;25.94;34.55;99397.73;1752105;82;20574;-78
2022/07/16 12:45:28;;;;;;;;;;;;;;;25.80;35.95;99402.15;1753304;82;20178;-76
2022/07/16 12:47:55;;;;;;;;;;;;;;;25.71;35.09;99400.45;1752701;82;20181;-79
2022/07/16 12:50:21;;;;;;;;;;;;;;;25.60;34.26;99404.17;1753228;82;20173;-72
2022/07/16 12:52:48;;;;;;;;;;;;;;;25.39;34.47;99404.45;1753408;82;21094;-72
2022/07/16 13:00:45;;;;;;;;;;;;;;;24.96;35.08;99404.89;1747815;82;20211;-68
2022/07/16 13:03:11;;;;;;;;;;;;;;;24.97;38.04;99403.69;1750957;82;20468;-69
2022/07/16 13:05:38;;;;;;;;;;;;;;;25.08;37.22;99404.19;1753506;81;21135;-68
2022/07/16 13:08:05;;;;;;;;;;;;;;;25.16;37.35;99407.91;1753157;81;20151;-69
2022/07/16 13:10:32;;;;;;;;;;;;;;;25.19;36.55;99406.28;1737878;81;20149;-68
2022/07/16 13:12:59;;;;;;;;;;;;;;;25.34;36.45;99399.29;1743653;81;20484;-68
2022/07/16 13:15:25;;;;;;;;;;;;;;;25.48;36.54;99394.08;1729854;82;20220;-68
2022/07/16 13:17:53;;;;;;;;;;;;;;;25.57;37.04;99398.59;1723624;83;20101;-69
2022/07/16 13:20:20;;;;;;;;;;;;;;;25.60;36.56;99401.36;1723653;83;20124;-68
2022/07/16 13:22:47;;;;;;;;;;;;;;;25.60;37.02;99402.76;1750890;82;20174;-68
2022/07/16 13:25:13;;;;;;;;;;;;;;;25.67;36.11;99403.31;1740265;82;20152;-68